번호 제목 글쓴이 날짜 조회 수
45957 [한글자막] 더 시티언 (The Scythian, 2018) Skif file 74d965 2019.01.29 5
45956 [한글자막] 브레인스캔 (Brainscan. 1994) 존 플린 file 015a01 2019.01.29 1
45955 [한글자막] 더 시크릿 하우스 (Marrowbone, 2017) 1080p.BluRay.x264-[YTS.AM] file bf078b 2019.01.29 11
45954 [한글자막] 도시는 지옥이다(Hell is a City, 1960) 영국 느와르, 스탠리 베이커 주연 file 4f55de 2019.01.29 1
45953 [한글자막] 나치의 대침공 (Nazis at the Center of the Earth. 2012) 조셉 J. 로우슨/ 어사일럼 file 4ac22f 2019.01.29 2
45952 [한글자막] 덴티스트 2: 이프 (The Dentist II. 1998) 브라이언 유즈나 file 5e37c0 2019.01.29 1
45951 [한글자막] 아폴로 13 (Apollo 13. 1995) 론 하워드 file 6b2579 2019.01.29 2
45950 [한글자막] 보우핑거 (1999.Bowfinger.Bluray) 한글자막 file 87645b 2019.01.29 1
45949 [한글자막] 카스바 (Rock the Kasbah, 2015) 1080p.BluRay.x264-DRONES file 292d6a 2019.01.29 6
45948 [한글자막] 우나기 (Unagi.AKA.The.Eel.1997.DVDRip.x264) -확장판-제 50회 칸 영화제 황금종려상 file 52a7b4 2019.01.29 6
45947 [한글자막] 악의 도시 (Septembers of Shiraz, 2015) file 35bbfd 2019.01.29 4
45946 [한글자막] 아는 여자 (Someone Special, 2004) file beebec 2019.01.29 5
45945 [한글자막] 노벰버 크리미널즈.November.Criminals.2017.720p.BluRay.x264-[YTS.AG] file ff5be5 2019.01.29 14
45944 [한글자막] 작은 독립영화사의 흥망성쇠(Grandeur et décadence d#039;un petit commerce de cinéma).1986 file d88731 2019.01.29 1
45943 [한글자막] 탑건 (Top Gun, 1986), BluRay.720p.x264.DTS-HDWinG.mkv file 0225e8 2019.01.29 8
45942 [한글자막] 유전 (Hereditary, 2017) WEB-DL NGT, FGT file 8bb6b4 2019.01.29 8
45941 [한글자막] 오션스8 (Ocean#039;s 8, 2018) 1080p.WEB-DL.DD5.1.H264-FGT file 08e16c 2019.01.29 4
45940 [한글자막] 우먼 워크 어헤드 (Woman Walks Ahead, 2017) file 7ce5db 2019.01.29 4
45939 [한글자막] 플로리스 (Flawless. 1999) 조엘 슈마허 file d094fc 2019.01.29 5
45938 [한글자막] 세상 끝에서 우리는 (Bokeh, 2017) 1080p.NF.WEB-DL.DD5.1.x264-NTb file 6c3e54 2019.01.29 1
45937 [한글자막] 사일런트 레이크 (Shimmer Lake, 2017) 1080p.WEBRip.AC3.x264-iFT file 162ca3 2019.01.29 42
45936 [한글자막] 러브리 어메이징 (Lovely Amazing, 2001) file 941914 2019.01.29 4
45935 [한글자막] 마이 라이프 (My Life, 1993) file a96e46 2019.01.29 1
45934 [한글자막] 어벤던 (Abandon, 2002) file 4f3f64 2019.01.29 1
45933 [한글자막] 최후의 카운트다운 (Miracle Mile, 1989) file 0f8749 2019.01.29 4
45932 [한글자막] 파라다이스 로드 (Paradise Road, 1997) file 5c4141 2019.01.29 1
45931 [한글자막] 공룡시대.The.Land.Before.Time.1988.1080p.BluRay.x264.YIFY file da4217 2019.01.29 1
45930 [한글자막] 캣츠.The.Cats.Meow.2001.720p.BluRay.H264.AAC-RARBG file f7217a 2019.01.29 1
45929 [한글자막] 나 없는 내 인생 (My Life Without Me, 2003) file 20ea37 2019.01.29 15
45928 [한글자막] 비밀과 거짓말의 차이 (Must Love Dogs, 2005) 720p.WEB-DL.HDCLUB.mkv file 292199 2019.01.29 4
45927 [한글자막] 숲 속의 눈동자 The.Watcher.in.the.Woods.1980.1080p.WEBRip.AAC2.0.x264-alfaHD file 769021 2019.01.29 3
45926 [한글자막] 사탄의 숭배자 (Satan#039;s Slaves, 2017) file e8d4e4 2019.01.29 2
45925 [한글자막] 만인의 여인(La signora di tutti) (1934) 막스 오필스 연출 file 128a3d 2019.01.29 1
45924 [한글자막] 더 스퀘어 (The Square, 2017) 1080p.BluRay.x264-PSYCHD file 6a995f 2019.01.29 14
45923 [한글자막] 신은 죽지 않았다 3: 어둠 속의 빛 (God#039;s Not Dead: A Light in Darkness, 2018) 한글, 통합, 영문자막 file 2c4f4b 2019.01.29 5
45922 [한글자막] 더 비지터: 리턴즈 (The Visitors: Bastille Day / Les Visiteurs: La Révolution, 2016) file 8797d7 2019.01.29 2
45921 [한글자막] 아메리칸 촌놈 (Loser, 2000) file 14f8f1 2019.01.29 2
45920 [한글자막] 임프로리 오브 더 먼쓰 (Employee Of The Month, 2004) file a04aef 2019.01.29 1
45919 [한글자막] 42년의 여름 (Summer of #039;42. 1971) 로버트 멀리건 file 3d17e3 2019.01.29 3
45918 [한글자막] 리버스 엣지 (River#039;s Edge. 1986) 팀 헌터 file aa5b1b 2019.01.29 2
45917 [한글자막] 몬몬몬 몬스터 (Mon Mon Mon Monsters, 2017) 1080p.WEB-DL.DD5.1.H.264-TAiCHi file a21e3b 2019.01.29 61
45916 [한글자막] 시저는 죽어야 한다 (Caesar Must Die, 2012) file 6a5e95 2019.01.29 8
45915 [한글자막] 파운드 (Found.2012.1080p.BluRay.x264.DTS-FGT) file b92785 2019.01.29 1
45914 [한글자막] 에프 엑스 (FX: Murder By Illusion, 1986) file 48ffa7 2019.01.29 2
45913 [한글자막] 광야의 40일 (Last Days in the Desert, 2015) file 2ebf7a 2019.01.29 22
45912 [한글자막] 빅터 빅토리아 (Victor Victoria, 1982) file c7e1ba 2019.01.29 8
45911 [한글자막] 초한지: 천하대전 (鴻門宴/ White Vengeance. 2011) 이인항 file cbdacb 2019.01.29 6
45910 [한글자막] 낮비 (Himeanole, 2016) file 9bd18c 2019.01.29 11
45909 [한글자막] 에프 엑스 (FX: Murder By Illusion/ F/X. 1985) 로버트 맨델 file 7dd2a7 2019.01.29 2
45908 [한글자막] 사랑을 합시다.Let#039;s.Make.Love.1960.720p.BluRay.x264-[YTS.AM] file 984703 2019.01.29 1
45907 [한글자막] 바그다드 카페 Bagdad Cafe/Out of Rosenheim (1987) file e31798 2019.01.29 21
45906 [한글자막] 밀크 머니.Milk.Money.1994.WEBRip.x264-RARBG file f9a215 2019.01.29 2
45905 [한글자막] 히얼스 유어 라이프 (Here#039;s Your Life, 1966) Criterion Bluray용 자막 file 490437 2019.01.29 1
45904 [한글자막] 힙합 애프터 파티 (The After Party, 2018) 1080p.NF.WEB-DL.DDP5.1.x264-NTG file 67b1b8 2019.01.29 1
45903 [한글자막] 디어 헌터 (The Deer Hunter, 1978) REMASTERED.1080p.BluRay.X264-AMIABLE file c96174 2019.01.29 13
45902 [한글자막] 우디 앨런과의 만남(Meetin#039; WA).1986 file 5e7a0e 2019.01.29 1
45901 [한글자막] 바그다드 카페 : 디렉터스컷 (Bagdad Cafe, Out Of Rosenheim, 1987) REMASTERED *새 번역판* file c7acd1 2019.01.29 9
45900 [한글자막] 다운 어 다크 홀 (Down a Dark Hall, 2018) file f70740 2019.01.29 3
45899 [한글자막] 잠깐만 회사 좀 관두고 올게 (ちょっと今から仕事やめてくる : To Each His Own, 2017) file 3f67bc 2019.01.29 5
45898 [한글자막] 토스트 (Toast. 2010) S.J. 클락슨 file 7921ab 2019.01.29 2
45897 [한글자막] 마돈나의 진실 혹은 대담 Madonna.Truth.or.Dare.1991.1080p.BluRay.x264-HD4U file 36f181 2019.01.29 1
45896 [한글자막] 글로리아 (Gloria. 1980) 존 카사베츠 file 23a85c 2019.01.29 6
45895 [한글자막] 스몰 타임 크룩스 (Small Time Crooks. 2000) 우디 앨런 file 40ae67 2019.01.29 4
45894 [한글자막] 황비홍: 남북영웅(黃飛鴻之南北英雄) 수정본 file 2634b0 2019.01.29 1
45893 [한글자막] 표적 (Target 1985) Target.1985.1080p.BluRay.x264.DD5.1-FGT file 066737 2019.01.29 7
45892 [한글자막] 날 수 없는 침묵 (とべない沈默: Silence Has No Wings, 1966) file 1bf318 2019.01.29 1
45891 [한글자막] 하츠 오브 다크니스 (Hearts of Darkness, 1991) file ca38a7 2019.01.29 1
45890 [한글자막] 머나먼 여정 (Homeward Bound: The Incredible Journey, 1993) WEB.DL-ABM file 4dbb75 2019.01.29 6
45889 [한글자막] 아메리칸 허슬 (American Hustle, 2013) file 380a17 2019.01.29 17
45888 [한글자막] 혈부용 (The Vengeful Beauty 1977) The.Vengeful.Beauty.1978.1080p.BluRay.x264-GHOULS file 9a1334 2019.01.29 1
45887 [한글자막] 그이는 마초 (Macho. 2016) 안토니오 세라노 file a5ffb3 2019.01.29 1
45886 [한글자막] 대공습 (Into the White, 2012) file 4bf150 2019.01.29 2
45885 [한글자막] 후세 2012, 쏘아올린 불꽃 2017 file 81f24c 2019.01.29 1
45884 [한글자막] 인 다크니스.in.darkness.2018.720p.bluray.hevc.x265.rmteam file f24935 2019.01.29 2
45883 [한글자막] 씨커 (Ticker. 2001) 앨버트 퓬 file 9d6a84 2019.01.29 1
45882 [한글자막] 청부 살인 Hired.To.Kill.1990.1080p.BluRay.x264-SPOOKS file f5b66e 2019.01.29 3
45881 [한글자막] 최후의 비명소리 Hide.And.Go.Shriek.1988.1080p.BluRay.x264-SPOOKS file efb01c 2019.01.29 2
45880 [한글자막] 오후의 사랑.L.Amour.L.apres.Midi.1972.FRENCH.BRrip.x264.AC3 file a989d6 2019.01.29 3
45879 [한글자막] 정복자 징기스칸 (The Conqueror. 1956) 딕 파웰 file 828207 2019.01.29 3
45878 [한글자막] 아마조니아 (Forest Slave, 1985) Amazonia.The.Catherine.Miles.Story.1985.1080p.BluRay.x264-… file faa6a1 2019.01.29 1
45877 [한글자막] 외계인 삐에로 (Killer Klowns from Outer Space, 1988) file 9d0743 2019.01.29 1
45876 [한글자막] 라이 위드 미 (Lie With Me, 2005) file 323c7a 2019.01.29 29
45875 [한글자막] 어드리프트: 우리가 함께한 바다 (Adrift, 2018) file 432dd5 2019.01.29 2
45874 [한글자막] 이반 차레비치와 공주 (Ivan Tsarevitch And the Changing Princess, 2016) file 2d8d5d 2019.01.29 12
45873 [한글자막] 하우스 오브 데드 (House of the Dead. 2003) 우베 볼 file fe0d41 2019.01.29 1
45872 [한글자막] 썸 오브 올 피어스 (The Sum Of All Fears, 2002) file 988e70 2019.01.29 7
45871 [한글자막] 적각비협 (赤脚小子: Bare Foot Kid, 1993) 1080p.WEBRip.x264-SEV file 094f9f 2019.01.29 7
45870 [한글자막] 웬 더 라이츠 웬트 아웃 (When the Lights Went Out. 2012) 팻 홀든 file da1e53 2019.01.29 1
45869 [한글자막] 혈앵무 Bloody.parrot.1981.xvid-delinquent file a4df3c 2019.01.29 1
45868 [한글자막] 인 다크니스 (In Darkness, 2018) 1080p.BluRay.x264-RCDiVX file 981b2f 2019.01.29 1
45867 [한글자막] 오션스8 (Ocean#039;s 8, 2018) 한글 자막 file cbf1de 2019.01.29 8
45866 [한글자막] 거룩한 분노 (Die gottliche Ordnung, The Divine Order, 2017) 1080p.BluRay.DTS.x264-HDS file bb2620 2019.01.29 9
45865 [한글자막] 사이공 (Saigon / Off Limits, 1988) *SUB/IDX* file 610b8f 2019.01.29 3
45864 [한글자막] 더 헌터 (The Hunter, 2011) file 4800b3 2019.01.29 1
45863 [한글자막] 주피터스 문 (Jupiter#039;s Moon, 2017) file b4bb69 2019.01.29 32
45862 [한글자막] X-레이 눈을 가진 사나이 (X: The Man With The X-Ray Eyes, 1963) file 96bcb2 2019.01.29 1
45861 [한글자막] [수정] 38인의 목격자 (The Witness/ 더 위트니스. 2015) 제임스 D. 솔로몬/ 다큐멘터리 file 08d468 2019.01.29 3
45860 [한글자막] 셜록 놈즈 (Sherlock Gnomes, 2018) BluRay SUB SUP *smi 포함* file 959be1 2019.01.29 7
45859 [한글자막] 신시내티 잡 (Marauders, 2016) file 6eeee1 2019.01.29 21
45858 [한글자막] 버지니아스 런 (Virginia#039;s Run,2002.1080p.AMZN.WEB-DL.DDP2.0.x264-ABM ) file a6fc1f 2019.01.29 1
45857 [한글자막] 오텁시 (Autopsy, 2008) file 5441e8 2019.01.29 7
45856 [한글자막] 도화선.Flash.Point.2007.BluRay.1080p.5.1CH.x264.Ganool file 6d1a12 2019.01.29 1
45855 [한글자막] 사라의 열쇠.Sarahs.Key.2010.720p.BluRay.H264.AAC-RARBG file e31cbe 2019.01.29 6
45854 [한글자막] 검은 튤립(1964) 알랭 들롱 1인 2역 file 988dc6 2019.01.29 1
45853 [한글자막] 더 서라운딩 게임 The.Surrounding.Game.2018.1080p.NF.WEBRip.DD5.1.x264-AJP69 file 7f2afe 2019.01.29 1
45852 [한글자막] 힛처 (The.Hitcher.1986.1080p.AMZN.WEB-DL.DD+2.0.H.264-SiGMA) file 0505e2 2019.01.29 2
45851 [한글자막] 더 바이블 -사도 바울 (The Bible: Paul Of Tarsos, 2000) file 662064 2019.01.29 1
45850 [한글자막] 스키타이: 불멸의 전사 (The Scythian, 2018) .1080p.Bluray.x264-[YTS.GG] file c772db 2019.01.29 15
45849 [한글자막] 와일드 타겟 (Wild Target, 2010) file 88e227 2019.01.29 2
45848 [한글자막] 영 셜록 홈즈.피라미드의 공포.Young.Sherlock.Holmes.1985.WEBRip.x264-RARBG file 7b1b84 2019.01.29 1
45847 [한글자막] 리어왕(King Lear).1987 file a48ad0 2019.01.29 1
45846 [한글자막] 배드 보이즈 (Bad Boys. 1983) 릭 로젠탈 file b97fdc 2019.01.29 1
45845 [한글자막] 다운힐 레이서 (Downhill Racer, 1969) Criterion Bluray용 한글자막 file 716564 2019.01.29 1
45844 [한글자막] 원트 유 비 마이 네이버? (Won’t You Be My Neighbor?, 2018) file e32337 2019.01.29 5
45843 [한글자막] 사랑의 물리학 The.Laws.of.Thermodynamics.2018.1080p.NF.WEBRip.DDP5.1.x264-NTG file b5117e 2019.01.29 1
45842 [한글자막] 너의 이름은. (君の名は。: Your Name., 2016) file 480f0d 2019.01.29 1
45841 [한글자막] 유전 (Hereditary, 2017) -자막교체 Hereditary.2018.720p.AMZN.WEB-DL.DDP5.1.H.264-NTG file 9bb27d 2019.01.29 40
45840 [한글자막] 더 인터벤션 (The Intervention, 2016) 1080p.WEB-DL.DD5.1.H264-FGT file 68f525 2019.01.29 2
45839 [한글자막] 유전 (Hereditary, 2018) 1080p.BluRay.x264-GECKOS file 226c3d 2019.01.29 39
45838 [한글자막] 홀로코스트 3, 카니발 페록스 (Cannibal Ferox 1981) Cannibal.Ferox.1981.UNCUT.1080p.BluRay.x264.DT… file 73dd6e 2019.01.29 15
45837 [한글자막] 드론 컨트롤러 (Drone, 2017) file f3e41e 2019.01.29 1
45836 [한글자막] 옐로우 (Yellow 2006) Yellow.2006.1080p.AMZN.WEB-DL.DDP2.0.x264-ABM file f251f2 2019.01.29 1
45835 [한글자막] 리프라이즐 Reprisal.2018.1080p.WEB-DL.H264.AC3-EVO file 4b812d 2019.01.29 9
45834 [한글자막] 천국으로 가는 계단 (A.Matter.of.Life.and.Death.1946.REMASTERED.1080p.BluRay.X264-AMIABLE[) file bee1ea 2019.01.29 2
45833 [한글자막] 1984년, 여름 (Summer of 84, 2018) file 9f7755 2019.01.29 14
45832 [한글자막] 오프사이드 (Offside 2006) Offside.2006.1080p.AMZN.WEB-DL.DDP2.0.x264-ABM file ee9271 2019.01.29 1
45831 [한글자막] 인사이드 (Inside/ À l#039;intérieur. 2007) 알렉상드르 뷔스티요, 쥴리앙 모리 file 0ec961 2019.01.29 30
45830 [한글자막] 멸망의 창조 (Fat Man And Little Boy 1989) Fat.Man.and.Little.Boy.1989.1080p.AMZN.WEBRip.DD… file bc19fe 2019.01.29 1
45829 [한글자막] 인사이드 잡 (Inside Job, 2010) BluRay SUB SUP *smi 포함* file a79435 2019.01.29 3
45828 [한글자막] 펠리니를 찾아서 (In Search of Fellini, 2017) 1080p.WEB-DL.DD5.1.H.264.CRO-DIAMOND file 4aaec7 2019.01.29 10
45827 [한글자막] 부에노스 아이레스 1977 (Buenos Aires 1977 , Chronicle Of An Escape 2006) Chronicle.of.an.Esca… file 23a993 2019.01.29 2
45826 [한글자막] 고트 (Goat, 2016) AMZN.WEB-DL.DD+5.1.x264-NTG file 884824 2019.01.29 1
45825 [한글자막] 노 굿 디드 (No Good Deed/ The House on Turk Street. 2002) 밥 라펠슨 file 495f8a 2019.01.29 1
45824 [한글자막] 크로스로드 (Crossroads 2002) Crossroads.2002.1080p.WEB-DL.DD.+5.1.H264-oki file 05b078 2019.01.29 1
45823 [한글자막] 록시 (Welcome Home, Roxy Carmichael 1990) Welcome.Home.Roxy.Carmichael.1990.1080p.AMZN.… file f9f5f5 2019.01.29 1
45822 [한글자막] 시스터즈 (Sisters, 2006) file fe8386 2019.01.29 2
45821 [한글자막] 메리와 맥스 (Mary and Max. 2009) 애덤 엘리엇 file dc4d0e 2019.01.29 2
45820 [한글자막] 버수스 (ボスス/ Versus. 2000) 기타무라 류헤이 file 5cbce4 2019.01.29 1
45819 [한글자막] 인사이드 (Inside/ À l#039;intérieur. 2007) BLUWORLD릴 24f용 file 90fd12 2019.01.29 1
45818 [한글자막] 코다크롬 (Kodachrome, 2017) 1080p.BluRay.REMUX.AVC.DTS-HD.MA.5.1-iMC file b226cb 2019.01.29 1
45817 [한글자막] 리벤지 (Revenge, 2017) 1080p.BluRay.X264-AMIABLE file 700a09 2019.01.29 2
45816 [한글자막] 호스틸 (Hostile, 2017) 1080p.BluRay.x264-PussyFoot file 1c27b9 2019.01.29 1
45815 [한글자막] 열흘 밤의 꿈 (Ten Nights of Dream : 夢十夜 / ユメ十夜, 2007) file 8c2ce7 2019.01.29 1
45814 [한글자막] 버려진 본능 (Love With The Proper Stranger 1963) file b72483 2019.01.29 2
45813 [한글자막] 3층의 이방인 (Stranger on the Third Floor 1940) file b60b75 2019.01.29 1
45812 [한글자막] 긴급 명령 (Clear And Present Danger, 1994) file 9bc790 2019.01.29 16
45811 [한글자막] 리프라이즐 (Reprisal, 2018) file b049a4 2019.01.29 3
45810 [한글자막] 미라클 메이커 (The Miracle Maker, 2000) file c609d0 2019.01.29 1
45809 [한글자막] 베이비 드라이버 (Baby Driver, 2017) .1080p.BluRay.x264.AC3-PsiX file fd5ced 2019.01.29 60
45808 [한글자막] 방탄승 Bulletproof.Monk.2003.1080p.BRRip.x264-YIFY-sub2.smi file c198b1 2019.01.29 3
45807 [한글자막] 보이카: 언디스퓨티드 파이널 (Undisputed 4, 2016) 1080p.BluRay.x264-ROVERS file 3d6461 2019.01.29 7
45806 [한글자막] 새비지도그 (Savage Dog, 2017) 1080p.BluRay.x264-BiPOLAR file 70f606 2019.01.29 1
45805 [한글자막] 뎁트 콜렉터: 스페셜 에이전트 (The Debt Collector, 2018) 1080p.BluRay.x264-RUSTED file 333266 2019.01.29 5
45804 [한글자막] 삼총사 The Three Musketeers 1948, 1973, 사총사 The Four Musketeers 1974 file dd61d7 2019.01.29 1
45803 [한글자막] 주성치의 파괴지왕 (Love On Delivery, 1994) 1080p.BluRay.x264-WiKi file a36c0a 2019.01.29 22
45802 [한글자막] 지그라 불린 사나이 (They Call Me Jeeg Robot, 2015) 1080p.BluRay.5.1.x264-MTeam file a14fe8 2019.01.29 11
45801 [한글자막] 아이 엠 러브 (Io sono l#039;amore, I Am Love, 2009) LIMITED.1080p.Bluray.X264-DIMENSION file 6f1669 2019.01.29 3
45800 [한글자막] 탈옥 (Lock Up. 1989) 존 플린 file 6b0d93 2019.01.29 1
45799 [한글자막] 동물 안락사 (Euthanizer, 2017) file 606f49 2019.01.29 1
45798 [한글자막] 키핑 더 페이스.Keeping.The.Faith.2000.720p.BluRay.x264-[YTS.AM] file c737f2 2019.01.29 2
45797 [한글자막] 인큐버스 ( Incubus aka Inkubo 1965) file 9406a3 2019.01.29 1
45796 [한글자막] 배드 컴패니 (Bad Company 1972) file e8bdb0 2019.01.29 1
45795 [한글자막] Threads (1984) file ab1da0 2019.01.29 7
45794 [한글자막] 아나폴리스 (Annapolis, 2006) file 585ef4 2019.01.29 2
45793 [한글자막] 데이 콜 미 지그 로봇 (They Call Me Jeeg Robot, 2015) 지그라 불린 사나이 file 2bc84d 2019.01.29 6
45792 [한글자막] 뉴욕 세 남자와 아기 3.Men.and.a.Baby.1987.WEBRip.x264-RARBG file 6be797 2019.01.29 1
45791 [한글자막] 기문둔갑 (奇门遁甲, The Thousand Faces of Dunjia, 2017) file c5a6ec 2019.01.29 3
45790 [한글자막] 요묘전: 레전드 오브 더 데몬 캣 (妖猫传, Legend of the Demon Cat, 2017) file 2fd57c 2019.01.29 6
45789 [한글자막] 아워 하우스 (Our House, 2018) Our.House.2018.1080p.AMZN.WEBRip.DDP5.1.x264-NTG file 2c7797 2019.01.29 3
45788 [한글자막] 리버스 엣지 (River#039;s Edge, 2018) Rivers.Edge.2018.JAPANESE.1080p.BluRay.x264.DTS-WiKi file e83e77 2019.01.29 19
45787 [한글자막] 거짓의 F ( For Fake, 1975 ) F.for.Fake.1973.1080p.BluRay.x264.YIFY file 913001 2019.01.29 5
45786 [한글자막] 퀵 앤 데드 (1995) The.Quick.and.the.Dead.1995.2160p.BluRay.x265.10bit.SDR.DTS-HD.MA.TrueH… file d3d16f 2019.01.29 1
45785 [한글자막] 십자가 (Cross, 2015) file 616258 2019.01.29 1
45784 [한글자막] 당신들의 조국.Vaterland 1994.HDTV (1080p) file b631aa 2019.01.29 1
45783 [한글자막] 카고 (Cargo, 2017) 1080p.AUS.BluRay.AVC.DTS-HD.MA.5.1-PmP file 27a792 2019.01.29 2
45782 [한글자막] 타임루프 : 벗어날 수 없는 (The Endless, 2017) 1080p.BluRay.x264-CiNEFiLE file 4a0331 2019.01.29 1
45781 [한글자막] 오션스8 (Ocean#039;s 8, 2018) file eaf7b6 2019.01.29 13
45780 [한글자막] 레버넌트 (The Revenant, 2009) file 0d7948 2019.01.29 6
45779 [한글자막] 레버넌트: 죽음에서 돌아온 자 (The.Revenant.2015).1080p.BluRay.x264.DTS-JYK file ca0b5b 2019.01.29 2
45778 [한글자막] 브레이븐 (Braven.2018).1080p.BluRay.x264-[YTS.AM] file 71a8e3 2019.01.29 18
45777 [한글자막] 디서비디언스 (Disobedience, 2017) BluRay SUB SUP *smi 포함* file 479a5b 2019.01.29 1
45776 [한글자막] 라이프 오브 더 파티 (Life of the Party, 2018) BluRay SUB SUP *smi 포함* file f71e20 2019.01.29 2
45775 [한글자막] 폴리스 스토리 (Police Story.Remastered.Bluray) 한글자막 file 29d5ae 2019.01.29 2
45774 [한글자막] 스카이스크래퍼 (Skyscraper.2018).1080p.WEB-DL.H264.AC3-EVO file 2f89f3 2019.01.29 42
45773 [한글자막] 시스터스 (Sisters/ 시스터즈. 2006) 더글라스 벅 file 622d2a 2019.01.29 4
45772 [한글자막] 존 웨인의 기병대 (The Horse Soldiers, 1959) file 079ab6 2019.01.29 2
45771 [한글자막] 제인 오스틴 북 클럽 (The Jane Austen Book Club. 2007) 로빈 스위코드 file 33abb8 2019.01.29 1
45770 [한글자막] 파털란트 (Vaterland, Fatherland, 1994 TV) Christopher Menaul file 31cd7e 2019.01.29 1
45769 [한글자막] 타임 루프: 벗어날 수 없는 (The Endless/ 디 엔들리스. 2017) 저스틴 벤슨, 아론 무어헤드 file 07d24c 2019.01.29 1
45768 [한글자막] 포에버 스트롱 (Forever Strong, 2008) file ba4a7b 2019.01.29 2
45767 [한글자막] 슈퍼플라이 (SuperFly, 2018) 1080p.BluRay.x264-Replica file 152f1e 2019.01.29 1
45766 [한글자막] 오른쪽을 조심하라(Soigne ta droite).1987 file 20f71e 2019.01.29 2
45765 [한글자막] 레이드 2 (The.Raid.2.2014).1080p.BluRay.x264-[YTS.AG] file e8a0d5 2019.01.29 1
45764 [한글자막] 밤의 문(Les Portes de la Nuit, 1946) 마르셀 까르네 연출 file 78c4e2 2019.01.29 1
45763 [한글자막] 쥬라기 월드: 폴른 킹덤 (Jurassic World: Fallen Kingdom, 2018) 1080p.BluRay.x264-SPARKS file 908367 2019.01.29 13
45762 [한글자막] 매일 살해당하는 여자 (The Most Assassinated Woman in the World, 2018) FRENCH.1080p.NF.WEBRip.… file 2875e2 2019.01.29 1
45761 [한글자막] 44분 - 헐리우드 북쪽 (44 Minutes: The North Hollywood Shoot-Out, 2003) file 0e1847 2019.01.29 1
45760 [한글자막] 넥스트 젠 (Next Gen, 2018) 1080p.NF.WEB-DL.DD+5.1.H264-CMRG file cbc8a7 2019.01.29 15
45759 [한글자막] 폴리스 스토리2-구룡의 눈 (警察故事續集: Police Story Part II, 1988) file 5373ce 2019.01.29 7
45758 [한글자막] 공포의 혹성 (Galaxy Of Terror. 1981) 브루스 D. 클라크 file 632264 2019.01.29 1